createdAt,value
2018-12-20T00:01:06.402Z,98273.34
2018-12-20T00:06:10.131Z,98264.02
2018-12-20T00:11:13.539Z,98260.52
2018-12-20T00:16:17.084Z,98259.72
2018-12-20T00:21:20.648Z,98254.81
2018-12-20T00:26:24.161Z,98252.55
2018-12-20T00:31:27.909Z,98258.25
2018-12-20T00:36:31.458Z,98255.23
2018-12-20T00:41:34.979Z,98263.28
2018-12-20T00:46:38.652Z,98264.69
2018-12-20T00:51:42.349Z,98262.16
2018-12-20T00:56:45.884Z,98262.53
2018-12-20T01:01:49.377Z,98257.20
2018-12-20T01:06:52.957Z,98268.59
2018-12-20T01:11:56.516Z,98266.13
2018-12-20T01:17:00.014Z,98262.86
2018-12-20T01:22:03.634Z,98270.77
2018-12-20T01:27:07.302Z,98274.19
2018-12-20T01:32:10.888Z,98270.11
2018-12-20T01:37:14.460Z,98273.33
2018-12-20T01:42:17.881Z,98271.80
2018-12-20T01:47:21.647Z,98279.81
2018-12-20T01:52:25.346Z,98275.48
2018-12-20T01:57:29.004Z,98281.50
2018-12-20T02:02:32.488Z,98291.11
2018-12-20T02:07:36.119Z,98286.95
2018-12-20T02:12:39.754Z,98285.92
2018-12-20T02:17:43.536Z,98290.83
2018-12-20T02:22:47.112Z,98279.58
2018-12-20T02:27:50.625Z,98271.28
2018-12-20T02:32:54.397Z,98255.39
2018-12-20T02:37:58.091Z,98259.06
2018-12-20T02:43:01.801Z,98259.93
2018-12-20T02:48:05.377Z,98256.55
2018-12-20T02:53:09.240Z,98257.48
2018-12-20T02:58:12.866Z,98250.89
2018-12-20T03:03:16.586Z,98249.28
2018-12-20T03:08:20.478Z,98246.94
2018-12-20T03:13:24.366Z,98245.03
2018-12-20T03:18:28.106Z,98246.73
2018-12-20T03:23:31.805Z,98243.77
2018-12-20T03:28:35.635Z,98250.94
2018-12-20T03:33:39.245Z,98243.60
2018-12-20T03:38:42.866Z,98237.66
2018-12-20T03:43:46.789Z,98239.55
2018-12-20T03:48:50.511Z,98231.47
2018-12-20T03:53:54.022Z,98222.28
2018-12-20T03:58:57.811Z,98221.03
2018-12-20T04:04:01.762Z,98214.19
2018-12-20T04:09:07.656Z,98222.19
2018-12-20T04:14:11.156Z,98223.97
2018-12-20T04:19:14.904Z,98219.34
2018-12-20T04:24:18.669Z,98221.41
2018-12-20T04:29:22.198Z,98221.57
2018-12-20T04:34:25.775Z,98225.29
2018-12-20T04:39:29.577Z,98226.20
2018-12-20T04:44:32.989Z,98227.72
2018-12-20T04:49:36.673Z,98218.31
2018-12-20T04:54:40.229Z,98226.44
2018-12-20T04:59:43.778Z,98234.52
2018-12-20T05:04:47.440Z,98234.81
2018-12-20T05:09:51.143Z,98241.58
2018-12-20T05:14:54.879Z,98231.75
2018-12-20T05:19:58.904Z,98228.48
2018-12-20T05:25:02.380Z,98233.84
2018-12-20T05:30:06.336Z,98237.22
2018-12-20T05:35:10.182Z,98232.22
2018-12-20T05:40:13.928Z,98236.48
2018-12-20T05:45:17.564Z,98241.47
2018-12-20T05:50:21.448Z,98241.13
2018-12-20T05:55:25.111Z,98239.60
2018-12-20T06:00:28.834Z,98239.30
2018-12-20T06:05:32.425Z,98244.91
2018-12-20T06:10:36.115Z,98246.54
2018-12-20T06:15:41.453Z,98250.94
2018-12-20T06:20:44.908Z,98246.82
2018-12-20T06:25:48.443Z,98247.13
2018-12-20T06:30:51.972Z,98249.68
2018-12-20T06:35:55.472Z,98252.27
2018-12-20T06:40:58.992Z,98255.92
2018-12-20T06:46:02.503Z,98266.16
2018-12-20T06:51:06.116Z,98270.98
2018-12-20T06:56:09.540Z,98261.58
2018-12-20T07:01:12.984Z,98259.55
2018-12-20T07:06:16.404Z,98272.31
2018-12-20T07:11:19.881Z,98279.81
2018-12-20T07:16:29.256Z,98281.50
2018-12-20T07:21:30.276Z,98280.19
2018-12-20T07:26:33.667Z,98276.06
2018-12-20T07:31:37.143Z,98291.80
2018-12-20T07:36:40.544Z,98298.63
2018-12-20T07:41:44.136Z,98305.67
2018-12-20T07:46:47.820Z,98302.66
2018-12-20T07:51:51.424Z,98310.59
2018-12-20T07:56:54.920Z,98305.95
2018-12-20T08:01:58.405Z,98318.84
2018-12-20T08:07:01.862Z,98318.91
2018-12-20T08:12:05.396Z,98319.39
2018-12-20T08:17:08.875Z,98324.41
2018-12-20T08:22:12.337Z,98331.36
2018-12-20T08:27:15.849Z,98341.64
2018-12-20T08:32:19.434Z,98345.27
2018-12-20T08:37:23.198Z,98348.66
2018-12-20T08:42:26.769Z,98348.78
2018-12-20T08:47:30.567Z,98350.84
2018-12-20T08:52:34.016Z,98349.02
2018-12-20T08:57:37.772Z,98349.61
2018-12-20T09:02:41.439Z,98356.50
2018-12-20T09:07:44.892Z,98364.96
2018-12-20T09:12:48.378Z,98370.25
2018-12-20T09:17:51.824Z,98368.41
2018-12-20T09:22:55.292Z,98374.81
2018-12-20T09:27:58.787Z,98376.44
2018-12-20T09:33:02.189Z,98378.66
2018-12-20T09:38:05.808Z,98372.09
2018-12-20T09:43:09.328Z,98368.98
2018-12-20T09:48:12.832Z,98372.59
2018-12-20T09:53:16.928Z,98372.95
2018-12-20T09:58:20.329Z,98370.34
2018-12-20T10:03:25.151Z,98365.04
2018-12-20T10:08:28.727Z,98369.45
2018-12-20T10:13:32.240Z,98370.46
2018-12-20T10:18:35.738Z,98370.83
2018-12-20T10:23:39.201Z,98359.06
2018-12-20T10:28:42.777Z,98364.95
2018-12-20T10:33:46.193Z,98359.36
2018-12-20T10:38:49.837Z,98351.91
2018-12-20T10:43:53.470Z,98350.39
2018-12-20T10:48:56.905Z,98346.83
2018-12-20T10:54:00.341Z,98347.85
2018-12-20T10:59:03.906Z,98330.41
2018-12-20T11:04:12.792Z,98333.46
2018-12-20T11:10:21.617Z,98329.39
2018-12-20T11:15:25.207Z,98328.34
2018-12-20T11:20:29.612Z,98320.89
2018-12-20T11:25:33.101Z,98322.15
2018-12-20T11:30:36.519Z,98321.81
2018-12-20T11:35:40.006Z,98314.52
2018-12-20T11:40:43.416Z,98308.42
2018-12-20T11:45:47.108Z,98307.07
2018-12-20T11:50:50.592Z,98306.84
2018-12-20T11:55:54.253Z,98303.19
2018-12-20T12:00:57.844Z,98307.77
2018-12-20T12:06:01.347Z,98309.69
2018-12-20T12:12:07.467Z,98307.53
2018-12-20T12:17:10.880Z,98312.57
2018-12-20T12:22:14.375Z,98312.34
2018-12-20T12:27:17.912Z,98312.47
2018-12-20T12:32:21.560Z,98310.05
2018-12-20T12:37:25.031Z,98305.71
2018-12-20T12:42:28.524Z,98301.50
2018-12-20T12:48:06.344Z,98306.31
2018-12-20T12:53:09.788Z,98304.62
2018-12-20T12:58:13.292Z,98310.11
2018-12-20T13:03:16.710Z,98303.25
2018-12-20T13:08:20.528Z,98294.44
2018-12-20T13:13:24.091Z,98308.22
2018-12-20T13:18:27.568Z,98308.59
2018-12-20T13:23:31.116Z,98309.37
2018-12-20T13:28:35.702Z,98301.04
2018-12-20T13:33:39.384Z,98300.33
2018-12-20T13:38:42.828Z,98302.39
2018-12-20T13:43:46.289Z,98306.59
2018-12-20T13:48:50.507Z,98306.72
2018-12-20T13:53:54.049Z,98308.23
2018-12-20T13:59:03.432Z,98309.09
2018-12-20T14:04:03.094Z,98317.77
2018-12-20T14:09:09.646Z,98334.97
2018-12-20T14:14:13.138Z,98331.20
2018-12-20T14:19:16.607Z,98324.93
2018-12-20T14:24:20.310Z,98329.70
2018-12-20T14:29:23.846Z,98336.50
2018-12-20T14:34:27.501Z,98336.50
2018-12-20T14:39:31.038Z,98336.59
2018-12-20T14:44:34.780Z,98335.38
2018-12-20T14:49:38.544Z,98337.42
2018-12-20T14:54:42.088Z,98339.58
2018-12-20T14:59:45.921Z,98336.43
2018-12-20T15:04:49.417Z,98344.25
2018-12-20T15:09:52.894Z,98337.35
2018-12-20T15:14:56.450Z,98347.63
2018-12-20T15:19:59.947Z,98349.55
2018-12-20T15:25:03.578Z,98352.29
2018-12-20T15:30:08.592Z,98357.82
2018-12-20T15:35:12.096Z,98357.82
2018-12-20T15:40:15.692Z,98356.81
2018-12-20T15:45:19.229Z,98364.90
2018-12-20T15:50:22.776Z,98370.30
2018-12-20T15:55:26.324Z,98357.73
2018-12-20T16:00:29.764Z,98369.34
2018-12-20T16:05:33.273Z,98376.51
2018-12-20T16:10:37.276Z,98379.43
2018-12-20T16:15:40.827Z,98383.36
2018-12-20T16:20:44.424Z,98391.29
2018-12-20T16:25:47.943Z,98390.34
2018-12-20T16:30:51.380Z,98393.45
2018-12-20T16:35:54.920Z,98397.27
2018-12-20T16:40:58.383Z,98406.55
2018-12-20T16:46:01.992Z,98417.52
2018-12-20T16:51:05.527Z,98425.61
2018-12-20T16:56:09.236Z,98421.98
2018-12-20T17:01:14.808Z,98434.27
2018-12-20T17:06:18.460Z,98424.05
2018-12-20T17:11:21.987Z,98433.05
2018-12-20T17:16:25.468Z,98435.38
2018-12-20T17:21:28.967Z,98441.28
2018-12-20T17:26:32.569Z,98430.31
2018-12-20T17:31:35.979Z,98435.74
2018-12-20T17:36:39.516Z,98438.39
2018-12-20T17:41:43.028Z,98440.77
2018-12-20T17:46:46.441Z,98439.20
2018-12-20T17:51:49.955Z,98442.31
2018-12-20T17:56:53.644Z,98442.68
2018-12-20T18:01:57.089Z,98443.42
2018-12-20T18:07:00.520Z,98441.88
2018-12-20T18:12:04.108Z,98438.48
2018-12-20T18:17:07.592Z,98447.31
2018-12-20T18:22:11.028Z,98438.17
2018-12-20T18:27:14.473Z,98432.74
2018-12-20T18:32:18.057Z,98437.28
2018-12-20T18:37:21.473Z,98444.74
2018-12-20T18:42:24.991Z,98447.24
2018-12-20T18:47:28.584Z,98445.33
2018-12-20T18:52:32.105Z,98441.36
2018-12-20T18:57:35.749Z,98441.85
2018-12-20T19:02:39.279Z,98460.48
2018-12-20T19:07:42.696Z,98459.07
2018-12-20T19:12:46.109Z,98445.42
2018-12-20T19:17:49.527Z,98448.56
2018-12-20T19:22:53.061Z,98451.95
2018-12-20T19:27:56.472Z,98449.38
2018-12-20T19:32:59.892Z,98450.84
2018-12-20T19:38:03.500Z,98456.36
2018-12-20T19:43:06.940Z,98461.30
2018-12-20T19:48:10.480Z,98470.22
2018-12-20T19:53:13.976Z,98473.05
2018-12-20T19:58:17.400Z,98458.20
2018-12-20T20:03:20.984Z,98450.17
2018-12-20T20:08:24.448Z,98452.97
2018-12-20T20:13:30.927Z,98456.72
2018-12-20T20:18:33.392Z,98458.11
2018-12-20T20:23:36.904Z,98453.27
2018-12-20T20:28:40.502Z,98447.27
2018-12-20T20:33:44.069Z,98440.52
2018-12-20T20:38:47.653Z,98442.34
2018-12-20T20:43:51.194Z,98432.94
2018-12-20T20:48:54.776Z,98428.06
2018-12-20T20:53:58.368Z,98416.22
2018-12-20T20:59:01.861Z,98433.00
2018-12-20T21:04:06.181Z,98441.33
2018-12-20T21:09:09.664Z,98434.23
2018-12-20T21:14:13.088Z,98425.09
2018-12-20T21:19:16.500Z,98429.44
2018-12-20T21:24:20.177Z,98427.89
2018-12-20T21:29:23.639Z,98434.42
2018-12-20T21:34:27.120Z,98425.14
2018-12-20T21:39:35.701Z,98431.78
2018-12-20T21:44:39.207Z,98440.23
2018-12-20T21:49:42.825Z,98435.53
2018-12-20T21:54:46.358Z,98435.58
2018-12-20T21:59:49.872Z,98432.45
2018-12-20T22:04:53.340Z,98421.36
2018-12-20T22:09:57.065Z,98425.33
2018-12-20T22:15:00.619Z,98438.86
2018-12-20T22:20:04.689Z,98433.52
2018-12-20T22:25:08.387Z,98443.12
2018-12-20T22:30:11.840Z,98451.98
2018-12-20T22:35:15.481Z,98455.36
2018-12-20T22:40:18.976Z,98447.50
2018-12-20T22:45:22.524Z,98446.45
2018-12-20T22:50:27.008Z,98438.63
2018-12-20T22:55:30.527Z,98434.52
2018-12-20T23:00:34.072Z,98437.30
2018-12-20T23:05:37.642Z,98437.77
2018-12-20T23:10:41.182Z,98434.80
2018-12-20T23:15:44.695Z,98428.03
2018-12-20T23:20:48.110Z,98436.71
2018-12-20T23:25:51.624Z,98433.87
2018-12-20T23:30:55.052Z,98429.75
2018-12-20T23:35:58.555Z,98429.39
2018-12-20T23:41:01.969Z,98425.55
2018-12-20T23:46:05.531Z,98411.33
2018-12-20T23:51:13.559Z,98411.95
2018-12-20T23:56:14.488Z,98405.79
